createdAt,value
2019-04-16T00:00:02.326Z,3.44
2019-04-16T00:03:06.227Z,3.45
2019-04-16T00:06:25.707Z,3.38
2019-04-16T00:09:45.103Z,3.34
2019-04-16T00:13:26.076Z,3.31
2019-04-16T00:16:30.048Z,3.31
2019-04-16T00:19:34.776Z,3.31
2019-04-16T00:22:46.295Z,3.42
2019-04-16T00:25:52.046Z,3.27
2019-04-16T00:28:55.674Z,3.30
2019-04-16T00:32:07.898Z,3.24
2019-04-16T00:35:10.142Z,3.36
2019-04-16T00:38:13.947Z,3.27
2019-04-16T00:41:17.801Z,3.38
2019-04-16T00:44:21.670Z,3.23
2019-04-16T00:47:25.484Z,3.21
2019-04-16T00:50:29.372Z,3.32
2019-04-16T00:53:33.305Z,3.26
2019-04-16T00:56:37.129Z,3.24
2019-04-16T00:59:40.954Z,3.30
2019-04-16T01:02:46.963Z,3.21
2019-04-16T01:05:50.402Z,3.14
2019-04-16T01:08:55.182Z,3.13
2019-04-16T01:11:59.587Z,3.16
2019-04-16T01:15:03.482Z,3.10
2019-04-16T01:18:08.868Z,3.06
2019-04-16T01:21:14.152Z,3.05
2019-04-16T01:24:20.221Z,3.01
2019-04-16T01:27:32.356Z,2.97
2019-04-16T01:30:46.020Z,2.98
2019-04-16T01:33:57.768Z,2.97
2019-04-16T01:37:09.595Z,2.97
2019-04-16T01:40:18.458Z,2.84
2019-04-16T01:43:25.559Z,2.89
2019-04-16T01:46:26.682Z,2.82
2019-04-16T01:49:30.526Z,2.73
2019-04-16T01:52:34.319Z,2.71
2019-04-16T01:55:38.219Z,2.68
2019-04-16T01:58:42.084Z,2.93
2019-04-16T02:01:45.954Z,2.83
2019-04-16T02:04:52.080Z,2.73
2019-04-16T02:07:56.404Z,2.80
2019-04-16T02:11:01.034Z,2.70
2019-04-16T02:14:05.172Z,2.69
2019-04-16T02:17:09.081Z,2.65
2019-04-16T02:20:13.165Z,2.65
2019-04-16T02:23:17.475Z,2.59
2019-04-16T02:26:23.553Z,2.77
2019-04-16T02:29:29.746Z,2.66
2019-04-16T02:32:32.467Z,2.70
2019-04-16T02:35:36.265Z,2.55
2019-04-16T02:38:46.264Z,2.53
2019-04-16T02:41:45.683Z,2.69
2019-04-16T02:44:50.373Z,2.61
2019-04-16T02:47:54.413Z,2.51
2019-04-16T02:51:09.179Z,2.52
2019-04-16T02:54:37.822Z,2.61
2019-04-16T02:58:00.133Z,2.54
2019-04-16T03:01:30.732Z,2.67
2019-04-16T03:04:39.415Z,2.74
2019-04-16T03:07:43.312Z,2.84
2019-04-16T03:10:48.031Z,2.69
2019-04-16T03:13:52.869Z,2.62
2019-04-16T03:17:19.369Z,2.71
2019-04-16T03:20:24.037Z,2.63
2019-04-16T03:23:28.451Z,2.51
2019-04-16T03:26:32.310Z,2.54
2019-04-16T03:29:36.278Z,2.54
2019-04-16T03:32:52.343Z,2.49
2019-04-16T03:35:57.784Z,2.66
2019-04-16T03:39:01.860Z,3.01
2019-04-16T03:42:05.763Z,2.59
2019-04-16T03:45:10.277Z,2.75
2019-04-16T03:48:14.226Z,2.96
2019-04-16T03:51:18.129Z,2.63
2019-04-16T03:54:22.628Z,2.82
2019-04-16T03:57:27.016Z,2.71
2019-04-16T04:00:30.815Z,2.81
2019-04-16T04:03:34.606Z,2.69
2019-04-16T04:06:39.620Z,2.79
2019-04-16T04:09:44.053Z,2.82
2019-04-16T04:12:47.901Z,2.90
2019-04-16T04:15:54.894Z,2.86
2019-04-16T04:18:57.501Z,2.80
2019-04-16T04:22:01.329Z,2.71
2019-04-16T04:25:05.829Z,2.53
2019-04-16T04:28:09.715Z,2.63
2019-04-16T04:31:13.530Z,2.57
2019-04-16T04:34:17.794Z,2.61
2019-04-16T04:37:21.731Z,2.92
2019-04-16T04:40:25.556Z,2.69
2019-04-16T04:43:31.964Z,2.77
2019-04-16T04:46:35.066Z,2.59
2019-04-16T04:49:38.907Z,2.53
2019-04-16T04:52:43.220Z,2.53
2019-04-16T04:55:48.274Z,2.58
2019-04-16T04:58:52.104Z,2.60
2019-04-16T05:01:55.916Z,2.60
2019-04-16T05:05:06.809Z,2.81
2019-04-16T05:08:10.747Z,2.94
2019-04-16T05:11:15.829Z,2.75
2019-04-16T05:14:20.299Z,3.15
2019-04-16T05:17:26.827Z,2.93
2019-04-16T05:20:30.687Z,3.17
2019-04-16T05:23:37.556Z,3.23
2019-04-16T05:26:40.004Z,3.13
2019-04-16T05:29:48.600Z,3.37
2019-04-16T05:32:49.383Z,3.26
2019-04-16T05:35:53.197Z,3.31
2019-04-16T05:38:57.015Z,3.33
2019-04-16T05:42:00.903Z,3.67
2019-04-16T05:45:05.647Z,3.79
2019-04-16T05:48:10.137Z,3.70
2019-04-16T05:51:14.030Z,3.71
2019-04-16T05:54:41.504Z,3.88
2019-04-16T05:57:46.451Z,4.06
2019-04-16T06:01:04.033Z,4.08
2019-04-16T06:04:07.951Z,4.14
2019-04-16T06:07:11.758Z,4.50
2019-04-16T06:10:18.135Z,4.47
2019-04-16T06:13:28.940Z,4.52
2019-04-16T06:16:57.611Z,4.54
2019-04-16T06:20:25.400Z,4.71
2019-04-16T06:23:48.514Z,5.00
2019-04-16T06:27:14.520Z,4.97
2019-04-16T06:30:32.942Z,5.05
2019-04-16T06:33:54.213Z,5.13
2019-04-16T06:37:21.603Z,5.26
2019-04-16T06:41:03.343Z,5.21
2019-04-16T06:44:12.731Z,5.47
2019-04-16T06:47:34.495Z,5.43
2019-04-16T06:50:58.671Z,5.50
2019-04-16T06:54:33.604Z,5.43
2019-04-16T06:57:54.809Z,5.55
2019-04-16T07:01:16.316Z,5.71
2019-04-16T07:04:39.299Z,5.77
2019-04-16T07:08:00.811Z,5.75
2019-04-16T07:11:04.732Z,5.68
2019-04-16T07:14:11.572Z,5.82
2019-04-16T07:17:17.339Z,5.94
2019-04-16T07:20:19.911Z,5.96
2019-04-16T07:23:24.767Z,6.02
2019-04-16T07:26:29.333Z,5.96
2019-04-16T07:29:37.160Z,5.96
2019-04-16T07:33:11.980Z,6.12
2019-04-16T07:36:43.738Z,6.13
2019-04-16T07:39:57.635Z,6.10
2019-04-16T07:43:31.004Z,6.36
2019-04-16T07:46:56.687Z,6.46
2019-04-16T07:50:25.530Z,6.77
2019-04-16T07:53:39.611Z,6.80
2019-04-16T07:56:46.679Z,7.00
2019-04-16T07:59:50.616Z,7.06
2019-04-16T08:02:54.723Z,6.90
2019-04-16T08:05:58.667Z,7.04
2019-04-16T08:09:02.607Z,7.33
2019-04-16T08:12:10.772Z,7.68
2019-04-16T08:15:15.258Z,7.31
2019-04-16T08:18:18.081Z,7.35
2019-04-16T08:21:22.681Z,7.36
2019-04-16T08:24:31.559Z,7.49
2019-04-16T08:27:35.410Z,7.58
2019-04-16T08:30:39.621Z,7.99
2019-04-16T08:33:43.605Z,7.99
2019-04-16T08:36:47.444Z,8.14
2019-04-16T08:39:51.278Z,8.05
2019-04-16T08:42:57.522Z,7.94
2019-04-16T08:46:00.701Z,7.87
2019-04-16T08:49:04.971Z,8.07
2019-04-16T08:52:10.170Z,8.10
2019-04-16T08:55:14.608Z,8.17
2019-04-16T08:58:18.514Z,8.35
2019-04-16T09:01:27.066Z,8.30
2019-04-16T09:04:34.275Z,8.29
2019-04-16T09:07:39.505Z,8.23
2019-04-16T09:10:44.761Z,8.35
2019-04-16T09:13:53.397Z,8.53
2019-04-16T09:17:04.711Z,8.66
2019-04-16T09:20:10.672Z,8.64
2019-04-16T09:23:14.557Z,8.84
2019-04-16T09:26:32.838Z,8.86
2019-04-16T09:29:58.763Z,8.95
2019-04-16T09:33:34.451Z,9.05
2019-04-16T09:36:56.105Z,8.79
2019-04-16T09:40:18.592Z,9.15
2019-04-16T09:43:23.906Z,9.28
2019-04-16T09:46:49.769Z,9.26
2019-04-16T09:49:34.289Z,9.10
2019-04-16T09:52:39.221Z,9.11
2019-04-16T09:55:43.129Z,9.07
2019-04-16T09:58:46.942Z,9.21
2019-04-16T10:01:54.241Z,9.15
2019-04-16T10:04:58.239Z,9.05
2019-04-16T10:08:02.063Z,9.21
2019-04-16T10:11:06.495Z,9.25
2019-04-16T10:14:10.533Z,9.24
2019-04-16T10:17:14.786Z,9.40
2019-04-16T10:20:18.766Z,9.15
2019-04-16T10:23:41.619Z,9.19
2019-04-16T10:26:47.306Z,9.33
2019-04-16T10:29:51.160Z,9.33
2019-04-16T10:32:55.160Z,9.42
2019-04-16T10:36:01.103Z,9.68
2019-04-16T10:39:24.608Z,9.64
2019-04-16T10:42:50.507Z,9.62
2019-04-16T10:46:19.096Z,9.37
2019-04-16T10:49:51.041Z,9.57
2019-04-16T10:53:16.657Z,9.51
2019-04-16T10:56:39.472Z,9.45
2019-04-16T11:00:08.567Z,9.63
2019-04-16T11:03:19.844Z,9.63
2019-04-16T11:06:35.254Z,9.83
2019-04-16T11:09:39.193Z,9.63
2019-04-16T11:12:43.007Z,9.81
2019-04-16T11:15:46.829Z,9.95
2019-04-16T11:18:50.797Z,9.91
2019-04-16T11:21:54.753Z,10.11
2019-04-16T11:24:58.637Z,10.40
2019-04-16T11:28:02.589Z,10.24
2019-04-16T11:31:10.674Z,9.99
2019-04-16T11:34:14.707Z,10.22
2019-04-16T11:37:18.518Z,10.18
2019-04-16T11:40:22.422Z,10.27
2019-04-16T11:43:26.375Z,10.30
2019-04-16T11:46:30.315Z,10.34
2019-04-16T11:49:34.248Z,10.36
2019-04-16T11:52:39.936Z,10.33
2019-04-16T11:55:43.834Z,10.11
2019-04-16T11:58:47.763Z,10.17
2019-04-16T12:02:06.776Z,10.20
2019-04-16T12:05:25.659Z,10.08
2019-04-16T12:08:42.710Z,10.15
2019-04-16T12:11:52.951Z,10.14
2019-04-16T12:15:17.515Z,10.29
2019-04-16T12:18:47.711Z,10.71
2019-04-16T12:22:03.747Z,10.64
2019-04-16T12:25:26.695Z,10.51
2019-04-16T12:28:59.473Z,10.37
2019-04-16T12:32:26.808Z,10.56
2019-04-16T12:35:45.537Z,10.64
2019-04-16T12:39:00.202Z,10.50
2019-04-16T12:42:17.313Z,10.55
2019-04-16T12:45:32.942Z,10.75
2019-04-16T12:49:08.036Z,10.62
2019-04-16T12:52:39.927Z,10.65
2019-04-16T12:56:06.037Z,10.59
2019-04-16T12:59:31.666Z,10.71
2019-04-16T13:02:57.387Z,10.81
2019-04-16T13:06:29.495Z,10.78
2019-04-16T13:09:51.081Z,11.19
2019-04-16T13:13:26.142Z,11.07
2019-04-16T13:16:47.538Z,11.03
2019-04-16T13:20:08.473Z,11.03
2019-04-16T13:23:19.544Z,10.94
2019-04-16T13:26:26.083Z,10.81
2019-04-16T13:29:31.771Z,10.99
2019-04-16T13:32:35.570Z,10.75
2019-04-16T13:35:39.483Z,10.74
2019-04-16T13:38:47.980Z,11.12
2019-04-16T13:41:51.876Z,11.02
2019-04-16T13:45:17.014Z,10.98
2019-04-16T13:48:31.874Z,10.90
2019-04-16T13:51:35.864Z,10.88
2019-04-16T13:54:48.663Z,10.98
2019-04-16T13:58:01.426Z,10.88
2019-04-16T14:01:18.903Z,10.93
2019-04-16T14:04:22.740Z,10.98
2019-04-16T14:07:26.624Z,10.92
2019-04-16T14:10:30.471Z,10.91
2019-04-16T14:13:34.401Z,10.96
2019-04-16T14:16:40.878Z,11.07
2019-04-16T14:19:43.882Z,11.11
2019-04-16T14:22:47.821Z,11.25
2019-04-16T14:25:51.661Z,11.30
2019-04-16T14:28:56.991Z,11.39
2019-04-16T14:32:00.869Z,11.23
2019-04-16T14:35:10.348Z,11.20
2019-04-16T14:38:17.253Z,11.18
2019-04-16T14:41:21.055Z,11.26
2019-04-16T14:44:27.141Z,11.29
2019-04-16T14:47:33.000Z,11.29
2019-04-16T14:50:36.616Z,11.21
2019-04-16T14:53:51.249Z,11.25
2019-04-16T14:56:57.342Z,11.50
2019-04-16T15:00:24.539Z,11.58
2019-04-16T15:03:37.166Z,11.67
2019-04-16T15:07:03.505Z,11.76
2019-04-16T15:10:16.429Z,11.71
2019-04-16T15:13:34.965Z,11.76
2019-04-16T15:16:50.881Z,11.92
2019-04-16T15:20:06.854Z,11.88
2019-04-16T15:23:29.007Z,11.82
2019-04-16T15:26:53.342Z,11.89
2019-04-16T15:30:13.870Z,12.02
2019-04-16T15:33:48.610Z,12.14
2019-04-16T15:37:07.499Z,12.40
2019-04-16T15:40:40.572Z,12.58
2019-04-16T15:43:56.483Z,12.46
2019-04-16T15:47:05.529Z,12.60
2019-04-16T15:50:35.751Z,12.82
2019-04-16T15:53:58.146Z,13.12
2019-04-16T15:57:18.688Z,13.43
2019-04-16T16:00:36.213Z,13.46
2019-04-16T16:04:11.301Z,13.74
2019-04-16T16:07:18.560Z,13.75
2019-04-16T16:10:26.646Z,13.78
2019-04-16T16:13:30.448Z,13.49
2019-04-16T16:16:41.756Z,13.45
2019-04-16T16:19:39.886Z,13.11
2019-04-16T16:22:43.711Z,13.33
2019-04-16T16:25:47.617Z,12.93
2019-04-16T16:28:51.427Z,12.10
2019-04-16T16:31:55.308Z,11.76
2019-04-16T16:34:59.358Z,11.63
2019-04-16T16:38:03.573Z,11.41
2019-04-16T16:41:07.571Z,11.30
2019-04-16T16:44:11.367Z,11.04
2019-04-16T16:47:40.472Z,11.01
2019-04-16T16:50:44.782Z,10.82
2019-04-16T16:54:12.308Z,10.60
2019-04-16T16:57:20.397Z,10.66
2019-04-16T17:00:42.215Z,10.42
2019-04-16T17:04:04.045Z,10.39
2019-04-16T17:07:08.827Z,10.37
2019-04-16T17:10:12.793Z,10.29
2019-04-16T17:13:20.937Z,10.22
2019-04-16T17:16:22.271Z,10.20
2019-04-16T17:19:26.091Z,10.07
2019-04-16T17:22:29.917Z,9.97
2019-04-16T17:25:36.654Z,9.96
2019-04-16T17:28:40.370Z,9.84
2019-04-16T17:31:44.891Z,9.82
2019-04-16T17:34:48.809Z,9.72
2019-04-16T17:37:52.626Z,9.78
2019-04-16T17:41:00.203Z,9.77
2019-04-16T17:44:16.571Z,9.55
2019-04-16T17:47:48.632Z,9.44
2019-04-16T17:51:17.479Z,9.36
2019-04-16T17:54:31.757Z,9.31
2019-04-16T17:57:51.816Z,9.12
2019-04-16T18:01:11.063Z,9.04
2019-04-16T18:04:36.771Z,9.21
2019-04-16T18:07:58.502Z,8.95
2019-04-16T18:11:10.810Z,9.06
2019-04-16T18:14:33.838Z,8.89
2019-04-16T18:17:57.130Z,8.83
2019-04-16T18:21:19.861Z,8.76
2019-04-16T18:24:28.882Z,8.66
2019-04-16T18:27:40.052Z,8.64
2019-04-16T18:30:49.891Z,8.52
2019-04-16T18:34:08.251Z,8.44
2019-04-16T18:37:38.365Z,8.59
2019-04-16T18:41:07.219Z,8.31
2019-04-16T18:44:42.227Z,8.23
2019-04-16T18:48:13.819Z,8.13
2019-04-16T18:51:16.910Z,8.06
2019-04-16T18:54:21.386Z,7.99
2019-04-16T18:57:25.256Z,8.24
2019-04-16T19:00:37.985Z,8.16
2019-04-16T19:03:42.009Z,7.92
2019-04-16T19:06:45.796Z,7.83
2019-04-16T19:09:49.621Z,7.79
2019-04-16T19:12:53.537Z,7.80
2019-04-16T19:15:57.334Z,7.75
2019-04-16T19:19:01.183Z,7.71
2019-04-16T19:22:05.234Z,7.70
2019-04-16T19:25:09.440Z,7.60
2019-04-16T19:28:13.328Z,7.70
2019-04-16T19:31:17.162Z,7.62
2019-04-16T19:34:20.971Z,7.62
2019-04-16T19:37:24.808Z,7.70
2019-04-16T19:40:28.595Z,7.56
2019-04-16T19:43:35.274Z,7.55
2019-04-16T19:46:38.088Z,7.65
2019-04-16T19:49:42.040Z,7.54
2019-04-16T19:52:45.949Z,7.58
2019-04-16T19:55:49.961Z,7.46
2019-04-16T19:58:53.761Z,7.38
2019-04-16T20:02:00.199Z,7.33
2019-04-16T20:05:03.186Z,7.52
2019-04-16T20:08:07.005Z,7.39
2019-04-16T20:11:10.921Z,7.38
2019-04-16T20:14:14.741Z,7.32
2019-04-16T20:17:18.547Z,7.33
2019-04-16T20:20:22.393Z,7.28
2019-04-16T20:23:26.198Z,7.27
2019-04-16T20:26:32.441Z,7.19
2019-04-16T20:29:35.652Z,7.20
2019-04-16T20:32:42.275Z,7.19
2019-04-16T20:35:50.359Z,7.21
2019-04-16T20:38:50.666Z,7.22
2019-04-16T20:41:58.992Z,7.20
2019-04-16T20:45:00.075Z,7.18
2019-04-16T20:48:04.033Z,7.15
2019-04-16T20:51:07.849Z,7.13
2019-04-16T20:54:13.792Z,7.12
2019-04-16T20:57:17.233Z,7.24
2019-04-16T21:00:27.379Z,7.13
2019-04-16T21:03:31.606Z,7.12
2019-04-16T21:06:40.519Z,7.11
2019-04-16T21:09:41.188Z,7.06
2019-04-16T21:12:46.039Z,7.05
2019-04-16T21:15:50.035Z,6.91
2019-04-16T21:18:53.919Z,7.02
2019-04-16T21:22:01.310Z,6.93
2019-04-16T21:25:03.724Z,6.88
2019-04-16T21:28:14.944Z,6.97
2019-04-16T21:31:26.766Z,6.85
2019-04-16T21:34:45.185Z,6.88
2019-04-16T21:38:17.379Z,6.80
2019-04-16T21:41:21.179Z,6.80
2019-04-16T21:44:25.032Z,6.70
2019-04-16T21:47:28.912Z,6.76
2019-04-16T21:50:32.717Z,6.73
2019-04-16T21:53:36.562Z,6.70
2019-04-16T21:56:40.407Z,6.79
2019-04-16T21:59:44.254Z,6.71
2019-04-16T22:02:48.204Z,6.73
2019-04-16T22:05:52.205Z,6.68
2019-04-16T22:08:58.855Z,6.64
2019-04-16T22:12:01.655Z,6.72
2019-04-16T22:15:06.726Z,6.68
2019-04-16T22:18:10.537Z,6.71
2019-04-16T22:21:14.435Z,6.71
2019-04-16T22:24:19.739Z,6.73
2019-04-16T22:27:23.822Z,6.58
2019-04-16T22:30:27.659Z,6.60
2019-04-16T22:33:31.565Z,6.61
2019-04-16T22:36:35.538Z,6.69
2019-04-16T22:43:39.675Z,6.57
2019-04-16T22:46:49.987Z,6.52
2019-04-16T22:49:56.707Z,6.49
2019-04-16T22:52:59.517Z,6.49
2019-04-16T22:56:03.437Z,6.44
2019-04-16T22:59:08.365Z,6.49
2019-04-16T23:02:24.075Z,6.36
2019-04-16T23:05:30.803Z,6.41
2019-04-16T23:08:33.398Z,6.38
2019-04-16T23:11:39.128Z,6.34
2019-04-16T23:14:43.058Z,6.35
2019-04-16T23:17:46.950Z,6.33
2019-04-16T23:20:50.823Z,6.44
2019-04-16T23:23:54.635Z,6.29
2019-04-16T23:27:04.256Z,6.29
2019-04-16T23:30:05.534Z,6.33
2019-04-16T23:33:09.715Z,6.31
2019-04-16T23:36:16.545Z,6.17
2019-04-16T23:39:19.174Z,6.24
2019-04-16T23:42:22.990Z,6.19
2019-04-16T23:45:51.956Z,6.15
2019-04-16T23:49:01.718Z,6.18
2019-04-16T23:52:14.200Z,6.16
2019-04-16T23:55:35.863Z,6.17
2019-04-16T23:59:01.464Z,6.13
